Time,TemperatureF,DewpointF,PressureIn,WindDirection,WindDirectionDegrees,WindSpeedMPH,WindSpeedGustMPH,Humidity,HourlyPrecipIn,Conditions,Clouds,dailyrainin,SolarRadiationWatts/m^2,SoftwareType,DateUTC
2013-04-15 00:22:00,21.0,9.0,-100.00,ENE,64,0.0,1.0,58,0.00,,,0.00,0.000000,,2013-04-15 08:22:00,
2013-04-15 00:33:00,21.0,9.0,-100.00,ENE,64,0.0,1.0,58,0.00,,,0.00,0.000000,,2013-04-15 08:33:00,
2013-04-15 00:42:00,21.0,9.0,-100.00,ENE,64,0.0,1.0,58,0.00,,,0.00,0.000000,,2013-04-15 08:42:00,
2013-04-15 00:52:00,21.0,9.0,-100.00,ENE,64,0.0,1.0,58,0.00,,,0.00,0.000000,,2013-04-15 08:52:00,
2013-04-15 01:22:00,19.0,8.0,-100.00,North,359,0.0,1.0,62,0.00,,,0.00,0.000000,,2013-04-15 09:22:00,
2013-04-15 01:32:00,19.0,8.0,-100.00,North,359,0.0,1.0,62,0.00,,,0.00,0.000000,,2013-04-15 09:32:00,
2013-04-15 01:42:00,19.0,8.0,-100.00,North,359,0.0,1.0,62,0.00,,,0.00,0.000000,,2013-04-15 09:42:00,
2013-04-15 01:52:00,19.0,8.0,-100.00,North,359,0.0,1.0,62,0.00,,,0.00,0.000000,,2013-04-15 09:52:00,
2013-04-15 02:23:00,17.0,8.0,-100.00,North,0,0.0,1.0,66,0.00,,,0.00,0.000000,,2013-04-15 10:23:00,
2013-04-15 02:33:00,17.0,8.0,-100.00,North,0,0.0,1.0,66,0.00,,,0.00,0.000000,,2013-04-15 10:33:00,
2013-04-15 02:42:00,17.0,8.0,-100.00,North,0,0.0,1.0,66,0.00,,,0.00,0.000000,,2013-04-15 10:42:00,
2013-04-15 02:52:00,17.0,8.0,-100.00,North,0,0.0,1.0,66,0.00,,,0.00,0.000000,,2013-04-15 10:52:00,
2013-04-15 03:22:00,16.0,8.0,-100.00,North,353,0.0,1.0,69,0.00,,,0.00,0.000000,,2013-04-15 11:22:00,
2013-04-15 03:32:00,16.0,8.0,-100.00,North,353,0.0,1.0,69,0.00,,,0.00,0.000000,,2013-04-15 11:32:00,
2013-04-15 03:42:00,16.0,8.0,-100.00,North,353,0.0,1.0,69,0.00,,,0.00,0.000000,,2013-04-15 11:42:00,
2013-04-15 03:52:00,16.0,8.0,-100.00,North,353,0.0,1.0,69,0.00,,,0.00,0.000000,,2013-04-15 11:52:00,
2013-04-15 04:23:00,17.0,8.0,-100.00,NNE,15,0.0,3.0,67,0.00,,,0.00,0.000000,,2013-04-15 12:23:00,
2013-04-15 04:33:00,17.0,8.0,-100.00,NNE,15,0.0,3.0,67,0.00,,,0.00,0.000000,,2013-04-15 12:33:00,
2013-04-15 04:43:00,17.0,8.0,-100.00,NNE,15,0.0,3.0,67,0.00,,,0.00,0.000000,,2013-04-15 12:43:00,
2013-04-15 04:52:00,17.0,8.0,-100.00,NNE,15,0.0,3.0,67,0.00,,,0.00,0.000000,,2013-04-15 12:52:00,
2013-04-15 05:23:00,15.0,6.0,-100.00,NE,38,0.0,4.0,67,0.00,,,0.00,0.000000,,2013-04-15 13:23:00,
2013-04-15 05:33:00,15.0,6.0,-100.00,NE,38,0.0,4.0,67,0.00,,,0.00,0.000000,,2013-04-15 13:33:00,
2013-04-15 05:42:00,15.0,6.0,-100.00,NE,38,0.0,4.0,67,0.00,,,0.00,0.000000,,2013-04-15 13:42:00,
2013-04-15 05:52:00,15.0,6.0,-100.00,NE,38,0.0,4.0,67,0.00,,,0.00,0.000000,,2013-04-15 13:52:00,
2013-04-15 06:22:00,13.0,6.0,-100.00,NNE,33,0.0,1.0,74,0.00,,,0.00,0.000000,,2013-04-15 14:22:00,
2013-04-15 06:33:00,13.0,6.0,-100.00,NNE,33,0.0,1.0,74,0.00,,,0.00,0.000000,,2013-04-15 14:33:00,
2013-04-15 06:43:00,13.0,6.0,-100.00,NNE,33,0.0,1.0,74,0.00,,,0.00,0.000000,,2013-04-15 14:43:00,
2013-04-15 06:53:00,13.0,6.0,-100.00,NNE,33,0.0,1.0,74,0.00,,,0.00,0.000000,,2013-04-15 14:53:00,
2013-04-15 07:23:00,12.0,6.0,-100.00,NNE,21,0.0,2.0,76,0.00,,,0.00,3.000000,,2013-04-15 15:23:00,
2013-04-15 07:43:00,12.0,6.0,-100.00,NNE,21,0.0,2.0,76,0.00,,,0.00,3.000000,,2013-04-15 15:43:00,
2013-04-15 07:53:00,12.0,6.0,-100.00,NNE,21,0.0,2.0,76,0.00,,,0.00,3.000000,,2013-04-15 15:53:00,
2013-04-15 08:24:00,13.0,7.0,-100.00,North,4,0.0,1.0,76,0.00,,,0.00,15.000000,,2013-04-15 16:24:00,
2013-04-15 08:33:00,13.0,7.0,-100.00,North,4,0.0,1.0,76,0.00,,,0.00,15.000000,,2013-04-15 16:33:00,
2013-04-15 08:43:00,13.0,7.0,-100.00,North,4,0.0,1.0,76,0.00,,,0.00,15.000000,,2013-04-15 16:43:00,
2013-04-15 08:52:00,13.0,7.0,-100.00,North,4,0.0,1.0,76,0.00,,,0.00,15.000000,,2013-04-15 16:52:00,
2013-04-15 09:21:00,17.0,9.0,-100.00,NE,47,0.0,2.0,69,0.00,,,0.00,43.000000,,2013-04-15 17:21:00,
2013-04-15 09:33:00,17.0,9.0,-100.00,NE,47,0.0,2.0,69,0.00,,,0.00,43.000000,,2013-04-15 17:33:00,
2013-04-15 09:43:00,17.0,9.0,-100.00,NE,47,0.0,2.0,69,0.00,,,0.00,43.000000,,2013-04-15 17:43:00,
2013-04-15 09:52:00,17.0,9.0,-100.00,NE,47,0.0,2.0,69,0.00,,,0.00,43.000000,,2013-04-15 17:52:00,
2013-04-15 10:23:00,26.0,10.0,-100.00,NNE,24,1.0,3.0,50,0.00,,,0.00,91.000000,,2013-04-15 18:23:00,
2013-04-15 10:32:00,26.0,10.0,-100.00,NNE,24,1.0,3.0,50,0.00,,,0.00,91.000000,,2013-04-15 18:32:00,
2013-04-15 10:42:00,26.0,10.0,-100.00,NNE,24,1.0,3.0,50,0.00,,,0.00,91.000000,,2013-04-15 18:42:00,
2013-04-15 10:52:00,26.0,10.0,-100.00,NNE,24,1.0,3.0,50,0.00,,,0.00,91.000000,,2013-04-15 18:52:00,
2013-04-15 11:22:00,38.0,19.0,-100.00,WNW,300,1.0,3.0,45,0.00,,,0.00,227.000000,,2013-04-15 19:22:00,
2013-04-15 11:47:00,38.0,19.0,-100.00,WNW,300,1.0,3.0,45,0.00,,,0.00,227.000000,,2013-04-15 19:47:00,
2013-04-15 12:22:00,42.0,15.0,-100.00,WSW,251,2.0,5.0,33,0.00,,,0.00,635.000000,,2013-04-15 20:22:00,
2013-04-15 12:32:00,42.0,15.0,-100.00,WSW,251,2.0,5.0,33,0.00,,,0.00,635.000000,,2013-04-15 20:32:00,
2013-04-15 12:42:00,42.0,15.0,-100.00,WSW,251,2.0,5.0,33,0.00,,,0.00,635.000000,,2013-04-15 20:42:00,
2013-04-15 12:52:00,42.0,15.0,-100.00,WSW,251,2.0,5.0,33,0.00,,,0.00,635.000000,,2013-04-15 20:52:00,
2013-04-15 13:22:00,46.0,15.0,-100.00,West,262,1.0,6.0,28,0.00,,,0.00,719.000000,,2013-04-15 21:22:00,
2013-04-15 13:32:00,46.0,15.0,-100.00,West,262,1.0,6.0,28,0.00,,,0.00,719.000000,,2013-04-15 21:32:00,
2013-04-15 13:42:00,46.0,15.0,-100.00,West,262,1.0,6.0,28,0.00,,,0.00,719.000000,,2013-04-15 21:42:00,
2013-04-15 13:53:00,46.0,15.0,-100.00,West,262,1.0,6.0,28,0.00,,,0.00,719.000000,,2013-04-15 21:53:00,
2013-04-15 14:23:00,48.0,13.0,-100.00,WSW,240,2.0,5.0,24,0.00,,,0.00,765.000000,,2013-04-15 22:23:00,
2013-04-15 14:32:00,48.0,13.0,-100.00,WSW,240,2.0,5.0,24,0.00,,,0.00,765.000000,,2013-04-15 22:32:00,
2013-04-15 15:22:00,48.0,9.0,-100.00,West,281,2.0,6.0,20,-99.99,,,0.00,776.000000,,2013-04-15 23:22:00,
2013-04-15 16:22:00,43.0,7.0,-100.00,WNW,300,2.0,7.0,22,-99.99,,,0.00,422.000000,,2013-04-16 00:22:00,
2013-04-15 16:32:00,43.0,7.0,-100.00,WNW,300,2.0,7.0,22,-99.99,,,0.00,422.000000,,2013-04-16 00:32:00,
2013-04-15 16:42:00,43.0,7.0,-100.00,WNW,300,2.0,7.0,22,-99.99,,,0.00,422.000000,,2013-04-16 00:42:00,
2013-04-15 16:51:00,43.0,7.0,-100.00,WNW,300,2.0,7.0,22,-99.99,,,0.00,422.000000,,2013-04-16 00:51:00,
2013-04-15 17:42:00,42.0,6.0,-100.00,NW,324,2.0,7.0,22,0.00,,,0.00,440.000000,,2013-04-16 01:42:00,
2013-04-15 17:52:00,42.0,6.0,-100.00,NW,324,2.0,7.0,22,0.00,,,0.00,440.000000,,2013-04-16 01:52:00,
2013-04-15 18:22:00,38.0,5.0,-100.00,NW,313,2.0,8.0,25,0.00,,,0.00,135.000000,,2013-04-16 02:22:00,
2013-04-15 19:22:00,39.0,6.0,-100.00,NNW,346,3.0,8.0,25,0.00,,,0.00,158.000000,,2013-04-16 03:22:00,
2013-04-15 19:33:00,39.0,6.0,-100.00,NNW,346,3.0,8.0,25,0.00,,,0.00,158.000000,,2013-04-16 03:33:00,
2013-04-15 20:42:00,35.0,4.0,-100.00,NNE,12,3.0,9.0,26,0.00,,,0.00,82.000000,,2013-04-16 04:42:00,
2013-04-15 20:52:00,35.0,4.0,-100.00,NNE,12,3.0,9.0,26,0.00,,,0.00,82.000000,,2013-04-16 04:52:00,
2013-04-15 21:22:00,31.0,3.0,-100.00,NE,37,2.0,6.0,30,0.00,,,0.00,25.000000,,2013-04-16 05:22:00,
2013-04-15 22:22:00,30.0,6.0,-100.00,NE,34,2.0,7.0,36,0.00,,,0.00,4.000000,,2013-04-16 06:22:00,
2013-04-15 22:32:00,30.0,6.0,-100.00,NE,34,2.0,7.0,36,0.00,,,0.00,4.000000,,2013-04-16 06:32:00,
2013-04-15 22:42:00,30.0,6.0,-100.00,NE,34,2.0,7.0,36,0.00,,,0.00,4.000000,,2013-04-16 06:42:00,
2013-04-15 22:52:00,30.0,6.0,-100.00,NE,34,2.0,7.0,36,0.00,,,0.00,4.000000,,2013-04-16 06:52:00,
2013-04-15 23:22:00,26.0,3.0,-100.00,North,5,0.0,6.0,37,0.00,,,0.00,0.000000,,2013-04-16 07:22:00,